createdAt,value
2023-02-04T00:00:07.555Z,55.60
2023-02-04T00:02:34.631Z,55.90
2023-02-04T00:05:01.561Z,55.80
2023-02-04T00:07:28.289Z,55.90
2023-02-04T00:09:54.969Z,56.10
2023-02-04T00:12:21.952Z,56.30
2023-02-04T00:14:48.659Z,56.40
2023-02-04T00:17:15.365Z,56.50
2023-02-04T00:19:42.031Z,56.60
2023-02-04T00:22:09.382Z,56.70
2023-02-04T00:24:37.254Z,56.80
2023-02-04T00:27:05.220Z,56.80
2023-02-04T00:29:32.046Z,56.80
2023-02-04T00:31:58.910Z,56.80
2023-02-04T00:34:26.009Z,57.00
2023-02-04T00:36:52.639Z,57.10
2023-02-04T00:39:19.294Z,57.10
2023-02-04T00:41:45.961Z,57.40
2023-02-04T00:44:14.111Z,57.40
2023-02-04T00:46:42.528Z,57.40
2023-02-04T00:49:10.756Z,57.70
2023-02-04T00:51:39.359Z,57.70
2023-02-04T00:54:06.989Z,57.60
2023-02-04T00:56:34.653Z,57.70
2023-02-04T00:59:01.498Z,57.90
2023-02-04T01:01:28.372Z,57.80
2023-02-04T01:03:55.542Z,57.80
2023-02-04T01:06:24.446Z,57.80
2023-02-04T01:08:51.207Z,58.50
2023-02-04T01:11:18.925Z,57.70
2023-02-04T01:13:46.215Z,57.70
2023-02-04T01:16:13.347Z,57.80
2023-02-04T01:18:40.156Z,57.80
2023-02-04T01:21:06.911Z,57.70
2023-02-04T01:23:33.578Z,57.60
2023-02-04T01:26:00.220Z,57.60
2023-02-04T01:28:27.065Z,57.70
2023-02-04T01:30:53.776Z,57.70
2023-02-04T01:33:20.711Z,57.80
2023-02-04T01:35:47.391Z,57.80
2023-02-04T01:38:14.137Z,57.80
2023-02-04T01:40:42.266Z,57.80
2023-02-04T01:43:09.826Z,57.90
2023-02-04T01:45:36.864Z,57.90
2023-02-04T01:48:04.978Z,57.90
2023-02-04T01:50:32.441Z,58.00
2023-02-04T01:53:00.055Z,57.90
2023-02-04T01:55:29.376Z,58.10
2023-02-04T01:57:58.670Z,58.10
2023-02-04T02:00:26.953Z,58.30
2023-02-04T02:02:54.209Z,58.40
2023-02-04T02:05:32.827Z,58.50
2023-02-04T02:08:01.942Z,58.50
2023-02-04T02:10:29.671Z,58.50
2023-02-04T02:12:57.252Z,58.40
2023-02-04T02:15:24.887Z,58.50
2023-02-04T02:17:53.736Z,58.70
2023-02-04T02:20:23.404Z,58.70
2023-02-04T02:23:11.473Z,58.90
2023-02-04T02:25:38.262Z,58.80
2023-02-04T02:28:09.997Z,58.70
2023-02-04T02:30:37.204Z,58.80
2023-02-04T02:33:04.809Z,58.80
2023-02-04T02:35:31.868Z,58.70
2023-02-04T02:37:58.696Z,58.80
2023-02-04T02:40:25.504Z,58.90
2023-02-04T02:42:54.011Z,58.80
2023-02-04T02:45:27.048Z,58.90
2023-02-04T02:47:55.818Z,58.80
2023-02-04T02:50:24.070Z,58.90
2023-02-04T02:52:53.017Z,58.90
2023-02-04T02:55:22.434Z,58.80
2023-02-04T02:57:50.992Z,58.60
2023-02-04T03:00:25.019Z,58.60
2023-02-04T03:02:59.961Z,58.50
2023-02-04T03:05:28.761Z,58.60
2023-02-04T03:07:55.415Z,58.60
2023-02-04T03:10:22.222Z,58.70
2023-02-04T03:12:49.026Z,58.50
2023-02-04T03:15:16.068Z,58.60
2023-02-04T03:17:43.902Z,58.70
2023-02-04T03:20:13.208Z,58.70
2023-02-04T03:22:41.174Z,58.50
2023-02-04T03:25:08.186Z,58.50
2023-02-04T03:27:34.878Z,58.40
2023-02-04T03:30:01.532Z,58.40
2023-02-04T03:32:28.226Z,58.30
2023-02-04T03:34:54.959Z,58.10
2023-02-04T03:37:21.603Z,57.90
2023-02-04T03:39:48.274Z,58.00
2023-02-04T03:42:15.035Z,57.60
2023-02-04T03:44:41.778Z,57.70
2023-02-04T03:47:08.395Z,57.70
2023-02-04T03:49:36.102Z,57.60
2023-02-04T03:52:04.335Z,57.70
2023-02-04T03:54:31.073Z,57.80
2023-02-04T03:56:58.829Z,57.80
2023-02-04T03:59:25.465Z,57.60
2023-02-04T04:01:52.635Z,57.40
2023-02-04T04:04:19.560Z,57.10
2023-02-04T04:06:46.215Z,56.90
2023-02-04T04:09:12.885Z,56.80
2023-02-04T04:11:39.538Z,56.80
2023-02-04T04:14:06.157Z,57.00
2023-02-04T04:16:32.804Z,57.00
2023-02-04T04:18:59.482Z,56.70
2023-02-04T04:21:26.259Z,56.50
2023-02-04T04:23:52.934Z,56.40
2023-02-04T04:26:20.094Z,56.20
2023-02-04T04:28:46.751Z,56.20
2023-02-04T04:31:13.644Z,56.10
2023-02-04T04:33:40.683Z,56.00
2023-02-04T04:36:08.536Z,55.70
2023-02-04T04:38:35.263Z,55.50
2023-02-04T04:41:01.970Z,55.80
2023-02-04T04:43:28.629Z,55.90
2023-02-04T04:45:55.365Z,55.90
2023-02-04T04:48:22.100Z,55.60
2023-02-04T04:50:49.089Z,55.60
2023-02-04T04:53:15.724Z,55.80
2023-02-04T04:55:42.460Z,56.00
2023-02-04T04:58:09.276Z,55.80
2023-02-04T05:00:35.928Z,55.40
2023-02-04T05:03:02.686Z,55.00
2023-02-04T05:07:57.561Z,54.90
2023-02-04T05:10:24.996Z,54.20
2023-02-04T05:12:51.638Z,54.20
2023-02-04T05:15:19.358Z,53.80
2023-02-04T05:22:41.399Z,53.30
2023-02-04T05:25:08.277Z,53.00
2023-02-04T05:27:34.995Z,52.80
2023-02-04T05:32:28.872Z,52.70
2023-02-04T05:34:55.607Z,52.40
2023-02-04T05:37:22.413Z,52.30
2023-02-04T05:39:49.277Z,52.40
2023-02-04T05:42:15.948Z,52.20
2023-02-04T05:44:42.575Z,52.20
2023-02-04T06:55:53.839Z,52.10
2023-02-04T06:58:20.481Z,50.80
2023-02-04T07:00:47.121Z,50.50
2023-02-04T07:03:13.901Z,50.40
2023-02-04T07:05:40.563Z,50.30
2023-02-04T07:08:07.201Z,50.30
2023-02-04T07:10:47.342Z,50.30
2023-02-04T07:13:14.227Z,50.40
2023-02-04T07:15:41.029Z,50.30
2023-02-04T07:18:07.732Z,50.30
2023-02-04T07:20:34.798Z,50.40
2023-02-04T07:23:01.714Z,49.70
2023-02-04T07:32:50.303Z,49.80
2023-02-04T07:35:17.674Z,51.50
2023-02-04T07:40:12.776Z,52.10
2023-02-04T07:42:39.426Z,52.90
2023-02-04T07:45:06.446Z,53.30
2023-02-04T07:47:33.106Z,53.90
2023-02-04T07:49:59.750Z,54.20
2023-02-04T07:52:26.445Z,54.70
2023-02-04T07:54:53.122Z,55.00
2023-02-04T07:57:20.547Z,55.20
2023-02-04T07:59:47.645Z,55.60
2023-02-04T08:02:14.317Z,56.10
2023-02-04T08:04:41.264Z,56.40
2023-02-04T08:07:08.098Z,56.40
2023-02-04T08:09:34.720Z,56.70
2023-02-04T08:12:01.443Z,57.10
2023-02-04T08:14:28.147Z,57.50
2023-02-04T08:16:54.903Z,57.60
2023-02-04T08:19:21.738Z,57.80
2023-02-04T08:21:48.777Z,58.10
2023-02-04T08:24:16.178Z,58.30
2023-02-04T08:26:43.387Z,58.60
2023-02-04T08:29:10.147Z,58.80
2023-02-04T08:31:37.792Z,59.00
2023-02-04T08:34:05.774Z,59.20
2023-02-04T08:36:32.939Z,59.50
2023-02-04T08:38:59.693Z,60.00
2023-02-04T08:41:26.451Z,60.40
2023-02-04T08:43:53.229Z,60.80
2023-02-04T08:46:20.028Z,61.30
2023-02-04T08:48:48.120Z,61.60
2023-02-04T08:51:15.402Z,62.00
2023-02-04T08:53:42.113Z,62.10
2023-02-04T08:56:10.351Z,62.30
2023-02-04T08:58:37.013Z,62.30
2023-02-04T09:01:03.930Z,62.40
2023-02-04T09:03:30.754Z,62.60
2023-02-04T09:05:57.425Z,62.70
2023-02-04T09:08:24.106Z,62.70
2023-02-04T09:10:50.790Z,62.80
2023-02-04T09:13:17.939Z,62.80
2023-02-04T09:15:44.723Z,63.00
2023-02-04T09:18:16.514Z,63.10
2023-02-04T09:20:44.212Z,63.00
2023-02-04T09:23:12.217Z,63.10
2023-02-04T09:25:43.426Z,63.40
2023-02-04T09:28:11.842Z,63.40
2023-02-04T09:30:39.872Z,63.20
2023-02-04T09:33:07.583Z,63.10
2023-02-04T09:35:34.464Z,63.10
2023-02-04T09:38:04.635Z,62.90
2023-02-04T09:40:37.599Z,62.90
2023-02-04T09:43:05.927Z,63.00
2023-02-04T09:45:36.335Z,63.20
2023-02-04T09:48:05.587Z,63.10
2023-02-04T09:50:33.870Z,62.80
2023-02-04T09:53:03.156Z,62.80
2023-02-04T09:55:34.336Z,62.80
2023-02-04T09:58:01.950Z,62.90
2023-02-04T10:00:30.941Z,62.70
2023-02-04T10:03:00.838Z,61.30
2023-02-04T10:05:33.519Z,60.60
2023-02-04T10:08:00.709Z,60.20
2023-02-04T10:10:28.330Z,60.20
2023-02-04T10:12:58.861Z,60.20
2023-02-04T10:15:26.235Z,60.50
2023-02-04T10:17:57.566Z,60.30
2023-02-04T10:20:25.434Z,60.20
2023-02-04T10:22:55.759Z,60.20
2023-02-04T10:25:25.017Z,60.20
2023-02-04T10:27:58.913Z,60.30
2023-02-04T10:30:33.635Z,59.70
2023-02-04T10:33:11.787Z,59.20
2023-02-04T10:35:46.414Z,59.00
2023-02-04T10:38:13.121Z,58.50
2023-02-04T10:40:40.928Z,58.60
2023-02-04T10:43:23.171Z,58.30
2023-02-04T10:46:04.154Z,58.40
2023-02-04T10:48:40.781Z,59.10
2023-02-04T10:51:13.442Z,58.90
2023-02-04T10:53:58.978Z,58.40
2023-02-04T10:56:25.646Z,58.40
2023-02-04T10:58:52.360Z,58.60
2023-02-04T11:01:19.062Z,58.40
2023-02-04T11:03:48.047Z,58.80
2023-02-04T11:06:20.942Z,58.50
2023-02-04T11:08:48.509Z,58.70
2023-02-04T11:11:21.469Z,58.50
2023-02-04T11:13:51.277Z,56.90
2023-02-04T11:16:18.074Z,57.40
2023-02-04T11:18:49.381Z,57.20
2023-02-04T11:21:36.537Z,56.70
2023-02-04T11:24:25.365Z,56.80
2023-02-04T11:27:23.713Z,57.00
2023-02-04T11:29:50.616Z,57.70
2023-02-04T11:32:32.201Z,57.60
2023-02-04T11:35:25.393Z,56.10
2023-02-04T11:37:52.154Z,57.10
2023-02-04T11:40:24.301Z,55.70
2023-02-04T11:43:01.073Z,54.80
2023-02-04T11:45:36.019Z,54.00
2023-02-04T11:48:11.693Z,53.80
2023-02-04T11:50:38.781Z,53.60
2023-02-04T11:53:05.800Z,53.30
2023-02-04T11:55:36.096Z,53.20
2023-02-04T11:58:03.069Z,53.30
2023-02-04T12:00:32.952Z,52.10
2023-02-04T12:03:11.921Z,51.90
2023-02-04T12:05:44.277Z,52.20
2023-02-04T12:08:24.112Z,52.10
2023-02-04T12:11:11.146Z,52.90
2023-02-04T12:13:57.567Z,52.30
2023-02-04T12:16:25.346Z,53.10
2023-02-04T12:18:52.139Z,52.50
2023-02-04T12:21:19.364Z,53.00
2023-02-04T12:33:36.138Z,53.40
2023-02-04T12:38:29.938Z,53.00
2023-02-04T12:40:56.594Z,52.50
2023-02-04T12:43:23.402Z,52.20
2023-02-04T12:45:50.181Z,51.80
2023-02-04T12:48:17.074Z,52.90
2023-02-04T12:50:43.809Z,52.10
2023-02-04T12:53:10.636Z,52.40
2023-02-04T12:55:37.475Z,52.40
2023-02-04T12:58:04.725Z,53.00
2023-02-04T13:00:31.703Z,53.30
2023-02-04T13:02:59.532Z,53.30
2023-02-04T13:05:27.303Z,53.90
2023-02-04T13:07:54.476Z,53.50
2023-02-04T13:10:21.880Z,52.80
2023-02-04T13:12:50.624Z,53.20
2023-02-04T13:15:17.321Z,53.50
2023-02-04T13:17:43.963Z,54.10
2023-02-04T13:20:11.324Z,53.60
2023-02-04T13:22:38.021Z,53.40
2023-02-04T13:25:05.416Z,53.20
2023-02-04T13:27:33.129Z,53.10
2023-02-04T13:29:59.851Z,53.20
2023-02-04T13:32:26.625Z,53.10
2023-02-04T13:34:53.275Z,53.40
2023-02-04T13:37:19.996Z,52.90
2023-02-04T13:39:46.707Z,52.90
2023-02-04T13:42:13.485Z,53.00
2023-02-04T13:44:40.098Z,51.80
2023-02-04T13:47:07.003Z,52.30
2023-02-04T13:49:33.921Z,52.80
2023-02-04T13:52:00.641Z,51.80
2023-02-04T13:54:27.347Z,52.20
2023-02-04T13:56:54.129Z,52.50
2023-02-04T13:59:21.158Z,53.40
2023-02-04T14:01:48.973Z,52.90
2023-02-04T14:04:15.761Z,52.60
2023-02-04T14:06:45.291Z,52.60
2023-02-04T14:09:12.681Z,52.80
2023-02-04T14:11:40.053Z,52.90
2023-02-04T14:14:07.111Z,52.70
2023-02-04T14:16:35.264Z,52.80
2023-02-04T14:19:03.615Z,52.50
2023-02-04T14:21:30.403Z,52.90
2023-02-04T14:23:57.121Z,52.80
2023-02-04T14:26:25.279Z,52.00
2023-02-04T14:28:51.955Z,52.10
2023-02-04T14:31:19.193Z,52.20
2023-02-04T14:33:46.970Z,52.10
2023-02-04T14:36:14.292Z,52.50
2023-02-04T14:38:41.006Z,52.30
2023-02-04T14:41:07.759Z,51.90
2023-02-04T14:43:37.187Z,52.30
2023-02-04T14:46:05.565Z,52.50
2023-02-04T14:48:32.794Z,51.60
2023-02-04T14:50:59.592Z,52.50
2023-02-04T14:53:26.287Z,52.00
2023-02-04T14:55:53.105Z,51.40
2023-02-04T14:58:19.941Z,51.00
2023-02-04T15:00:47.081Z,51.50
2023-02-04T15:03:13.725Z,51.50
2023-02-04T15:05:40.457Z,51.30
2023-02-04T15:08:07.325Z,52.30
2023-02-04T15:10:34.249Z,51.20
2023-02-04T15:13:01.335Z,51.60
2023-02-04T15:15:28.158Z,51.60
2023-02-04T15:17:54.821Z,51.80
2023-02-04T15:20:21.477Z,52.10
2023-02-04T15:22:51.805Z,52.50
2023-02-04T15:25:19.311Z,52.30
2023-02-04T15:27:46.187Z,52.20
2023-02-04T15:30:13.075Z,52.60
2023-02-04T15:32:40.401Z,52.70
2023-02-04T15:35:09.347Z,52.40
2023-02-04T15:37:36.084Z,52.10
2023-02-04T15:40:02.712Z,52.40
2023-02-04T15:42:29.662Z,52.40
2023-02-04T15:44:56.435Z,52.60
2023-02-04T15:47:23.130Z,52.60
2023-02-04T15:49:49.766Z,52.20
2023-02-04T15:52:24.404Z,52.10
2023-02-04T15:54:52.354Z,52.60
2023-02-04T15:57:19.001Z,53.10
2023-02-04T15:59:45.680Z,52.90
2023-02-04T16:02:12.575Z,53.30
2023-02-04T16:04:40.465Z,53.70
2023-02-04T16:07:08.406Z,54.20
2023-02-04T16:09:35.619Z,54.20
2023-02-04T16:12:02.572Z,54.60
2023-02-04T16:14:29.272Z,54.70
2023-02-04T16:16:55.971Z,54.90
2023-02-04T16:19:22.611Z,55.00
2023-02-04T16:21:49.298Z,55.20
2023-02-04T16:24:18.426Z,55.70
2023-02-04T16:26:45.793Z,55.90
2023-02-04T16:29:12.561Z,56.00
2023-02-04T16:31:39.267Z,55.90
2023-02-04T16:34:05.952Z,55.90
2023-02-04T16:36:32.843Z,56.20
2023-02-04T16:39:00.028Z,55.80
2023-02-04T16:41:26.702Z,55.80
2023-02-04T16:43:53.507Z,55.90
2023-02-04T16:46:20.264Z,55.80
2023-02-04T16:48:47.075Z,55.90
2023-02-04T16:51:13.812Z,56.00
2023-02-04T16:53:40.532Z,56.00
2023-02-04T16:56:07.459Z,56.20
2023-02-04T16:58:34.129Z,56.20
2023-02-04T17:01:00.914Z,56.30
2023-02-04T17:03:28.448Z,56.00
2023-02-04T17:05:55.200Z,56.10
2023-02-04T17:08:22.059Z,55.90
2023-02-04T17:11:07.743Z,55.90
2023-02-04T17:13:34.449Z,55.90
2023-02-04T17:16:01.616Z,56.20
2023-02-04T17:18:29.860Z,55.70
2023-02-04T17:20:56.944Z,55.50
2023-02-04T18:05:27.943Z,55.50
2023-02-04T18:08:19.888Z,56.50
2023-02-04T18:10:49.453Z,56.80
2023-02-04T18:13:24.800Z,56.70
2023-02-04T18:15:59.391Z,57.40
2023-02-04T18:18:27.314Z,56.90
2023-02-04T18:20:58.180Z,56.90
2023-02-04T18:23:27.382Z,57.10
2023-02-04T18:25:55.130Z,57.10
2023-02-04T18:28:22.401Z,57.30
2023-02-04T18:30:53.230Z,57.80
2023-02-04T18:33:22.607Z,57.30
2023-02-04T18:35:51.713Z,57.30
2023-02-04T18:38:39.144Z,57.30
2023-02-04T18:41:18.413Z,57.30
2023-02-04T18:43:50.705Z,57.40
2023-02-04T18:46:27.972Z,58.10
2023-02-04T18:49:19.444Z,57.50
2023-02-04T18:51:46.470Z,57.70
2023-02-04T18:54:29.914Z,57.60
2023-02-04T18:57:29.193Z,57.80
2023-02-04T19:00:22.054Z,57.70
2023-02-04T19:02:52.931Z,57.90
2023-02-04T19:05:35.326Z,57.70
2023-02-04T19:08:04.880Z,57.80
2023-02-04T19:10:34.119Z,57.90
2023-02-04T19:13:29.974Z,58.00
2023-02-04T19:16:02.339Z,57.90
2023-02-04T19:18:37.515Z,57.70
2023-02-04T19:21:21.089Z,57.50
2023-02-04T19:23:48.900Z,57.60
2023-02-04T19:26:43.396Z,57.80
2023-02-04T19:29:22.337Z,57.90
2023-02-04T19:31:50.076Z,58.10
2023-02-04T19:34:33.851Z,58.00
2023-02-04T19:37:00.517Z,58.30
2023-02-04T19:39:40.259Z,58.20
2023-02-04T19:42:33.478Z,58.30
2023-02-04T19:45:18.100Z,58.60
2023-02-04T19:47:45.236Z,58.50
2023-02-04T19:50:15.069Z,58.30
2023-02-04T19:52:48.646Z,58.30
2023-02-04T19:55:26.132Z,58.40
2023-02-04T19:57:57.920Z,58.50
2023-02-04T20:00:33.563Z,58.50
2023-02-04T20:03:01.815Z,58.50
2023-02-04T20:05:32.677Z,58.60
2023-02-04T20:08:36.352Z,58.50
2023-02-04T20:11:35.614Z,58.40
2023-02-04T20:14:14.739Z,58.60
2023-02-04T20:16:52.718Z,58.40
2023-02-04T20:19:35.586Z,58.20
2023-02-04T20:22:17.615Z,58.00
2023-02-04T20:25:19.276Z,57.80
2023-02-04T20:27:49.025Z,57.80
2023-02-04T20:30:15.736Z,57.70
2023-02-04T20:32:46.046Z,58.10
2023-02-04T20:35:18.792Z,58.00
2023-02-04T20:37:51.130Z,58.00
2023-02-04T20:40:23.772Z,58.10
2023-02-04T20:42:58.518Z,58.20
2023-02-04T20:45:46.311Z,58.30
2023-02-04T20:48:15.866Z,58.20
2023-02-04T20:50:43.614Z,58.30
2023-02-04T20:53:36.986Z,58.30
2023-02-04T20:56:16.482Z,58.50
2023-02-04T20:58:45.565Z,58.30
2023-02-04T21:01:35.412Z,58.50
2023-02-04T21:04:25.762Z,58.80
2023-02-04T21:07:00.837Z,58.70
2023-02-04T21:09:30.358Z,58.60
2023-02-04T21:11:58.514Z,58.50
2023-02-04T21:14:26.235Z,58.60
2023-02-04T21:16:54.816Z,58.60
2023-02-04T21:19:23.816Z,58.40
2023-02-04T21:21:50.766Z,58.40
2023-02-04T21:24:18.252Z,58.20
2023-02-04T21:26:44.923Z,58.30
2023-02-04T21:29:11.724Z,58.30
2023-02-04T21:31:38.656Z,58.40
2023-02-04T21:34:06.090Z,58.50
2023-02-04T21:36:33.128Z,58.50
2023-02-04T21:38:59.944Z,58.50
2023-02-04T21:41:26.619Z,58.70
2023-02-04T21:43:53.829Z,58.80
2023-02-04T21:46:20.894Z,58.80
2023-02-04T21:48:47.744Z,58.90
2023-02-04T21:51:15.446Z,58.90
2023-02-04T21:53:42.575Z,59.10
2023-02-04T21:56:09.933Z,59.20
2023-02-04T21:58:36.934Z,59.20
2023-02-04T22:01:03.676Z,59.20
2023-02-04T22:03:30.482Z,59.20
2023-02-04T22:05:57.312Z,59.70
2023-02-04T22:08:24.016Z,59.80
2023-02-04T22:10:50.676Z,59.00
2023-02-04T22:13:17.417Z,58.50
2023-02-04T22:15:44.070Z,58.50
2023-02-04T22:18:12.045Z,58.90
2023-02-04T22:20:39.612Z,58.90
2023-02-04T22:23:06.541Z,59.00
2023-02-04T22:25:33.683Z,59.20
2023-02-04T22:28:01.715Z,59.40
2023-02-04T22:32:56.550Z,59.50
2023-02-04T22:35:23.393Z,60.10
2023-02-04T22:37:50.105Z,60.30
2023-02-04T22:40:17.025Z,60.50
2023-02-04T22:42:43.703Z,60.70
2023-02-04T22:45:10.494Z,60.70
2023-02-04T22:47:37.290Z,60.90
2023-02-04T22:50:04.174Z,60.90
2023-02-04T22:52:31.042Z,61.20
2023-02-04T22:54:57.889Z,61.50
2023-02-04T22:57:24.520Z,61.70
2023-02-04T22:59:51.189Z,61.80
2023-02-04T23:02:17.936Z,61.80
2023-02-04T23:04:44.794Z,61.80
2023-02-04T23:07:13.064Z,61.80
2023-02-04T23:09:40.593Z,61.80
2023-02-04T23:12:15.541Z,61.80
2023-02-04T23:14:44.820Z,61.90
2023-02-04T23:17:12.215Z,62.10
2023-02-04T23:19:39.158Z,62.40
2023-02-04T23:22:12.379Z,62.50
2023-02-04T23:24:39.763Z,62.50
2023-02-04T23:27:07.142Z,62.60
2023-02-04T23:29:35.368Z,62.70
2023-02-04T23:32:03.086Z,62.70
2023-02-04T23:34:30.830Z,62.80
2023-02-04T23:36:57.659Z,62.90
2023-02-04T23:39:24.415Z,63.20
2023-02-04T23:41:51.480Z,63.40
2023-02-04T23:44:18.737Z,63.60
2023-02-04T23:46:45.635Z,63.90
2023-02-04T23:49:12.572Z,64.10
2023-02-04T23:51:39.530Z,64.40
2023-02-04T23:54:07.119Z,64.50
2023-02-04T23:56:33.960Z,64.70
2023-02-04T23:59:01.353Z,64.80
